Time;durP1;ratioP1;P1;durP2;ratioP2;P2;SDS_P1;SDS_P2;PMS_P1;PMS_P2;Temp;Humidity;BMP_temperature;BMP_pressure;BME280_temperature;BME280_humidity;BME280_pressure;Samples;Min_cycle;Max_cycle;Signal;HPM_P1;HPM_P2
2022/11/14 00:00:38;;;;;;;18.52;10.38;;;;;;;4.54;100.00;101375.81;5114719;28;20110;-86
2022/11/14 00:03:05;;;;;;;18.57;10.40;;;;;;;4.53;100.00;101376.81;5096307;28;20150;-86
2022/11/14 00:05:31;;;;;;;16.52;9.95;;;;;;;4.47;100.00;101366.72;5112916;28;20138;-85
2022/11/14 00:07:57;;;;;;;19.40;10.68;;;;;;;4.46;100.00;101370.41;5112926;28;20071;-86
2022/11/14 00:10:23;;;;;;;15.65;10.15;;;;;;;4.43;100.00;101371.59;5112873;28;20046;-86
2022/11/14 00:12:52;;;;;;;15.60;9.80;;;;;;;4.42;100.00;101369.06;5113741;28;20031;-86
2022/11/14 00:15:17;;;;;;;14.93;10.10;;;;;;;4.41;100.00;101362.00;5130469;27;20433;-86
2022/11/14 00:17:43;;;;;;;15.10;9.67;;;;;;;4.44;100.00;101367.03;5130183;27;20035;-86
2022/11/14 00:20:10;;;;;;;16.00;9.87;;;;;;;4.43;100.00;101357.28;5130227;27;20042;-86
2022/11/14 00:22:35;;;;;;;15.23;10.07;;;;;;;4.44;100.00;101357.13;5130128;27;20292;-86
2022/11/14 00:25:01;;;;;;;15.40;10.13;;;;;;;4.44;100.00;101359.81;5112947;28;20032;-86
2022/11/14 00:27:29;;;;;;;15.18;10.10;;;;;;;4.45;100.00;101366.06;5113866;28;20032;-86
2022/11/14 00:29:55;;;;;;;15.30;9.32;;;;;;;4.44;100.00;101359.81;5113170;28;20529;-86
2022/11/14 00:32:21;;;;;;;15.55;9.63;;;;;;;4.43;100.00;101357.28;5129761;27;20031;-86
2022/11/14 00:34:47;;;;;;;14.65;9.63;;;;;;;4.36;100.00;101351.75;5113190;28;20028;-86
2022/11/14 00:37:13;;;;;;;12.83;8.50;;;;;;;4.34;100.00;101354.59;5129716;28;20035;-86
2022/11/14 00:39:38;;;;;;;15.73;9.13;;;;;;;4.30;100.00;101347.84;5112582;28;20085;-86
2022/11/14 00:42:04;;;;;;;16.20;9.47;;;;;;;4.26;100.00;101345.66;5114020;28;20028;-86
2022/11/14 00:44:29;;;;;;;16.90;9.27;;;;;;;4.26;100.00;101349.19;5095499;28;20444;-87
2022/11/14 00:46:58;;;;;;;13.70;9.20;;;;;;;4.21;100.00;101346.97;5130013;28;20297;-86
2022/11/14 00:49:23;;;;;;;13.18;9.23;;;;;;;4.18;100.00;101344.63;5095734;28;20135;-86
2022/11/14 00:51:49;;;;;;;13.27;8.93;;;;;;;4.17;100.00;101342.91;5095369;28;20131;-87
2022/11/14 00:54:14;;;;;;;12.83;8.60;;;;;;;4.15;100.00;101344.06;5095995;28;20150;-86
2022/11/14 00:56:39;;;;;;;13.00;8.77;;;;;;;4.10;100.00;101336.50;5129750;28;20039;-87
2022/11/14 00:59:05;;;;;;;15.35;8.55;;;;;;;4.09;100.00;101337.53;5095344;28;20127;-86
2022/11/14 01:01:30;;;;;;;14.05;8.77;;;;;;;4.09;100.00;101328.63;5112793;28;20038;-86
2022/11/14 01:03:56;;;;;;;12.27;8.77;;;;;;;4.03;100.00;101322.91;5129999;28;20036;-86
2022/11/14 01:06:22;;;;;;;14.43;9.20;;;;;;;4.01;100.00;101322.19;5113151;28;20384;-86
2022/11/14 01:08:50;;;;;;;13.88;9.35;;;;;;;3.99;100.00;101313.47;5112876;28;20035;-86
2022/11/14 01:11:18;;;;;;;16.55;9.45;;;;;;;3.96;100.00;101313.81;5132765;27;20028;-86
2022/11/14 01:13:44;;;;;;;14.50;8.85;;;;;;;3.93;100.00;101306.06;5118497;28;20380;-86
2022/11/14 01:16:10;;;;;;;14.38;8.75;;;;;;;3.92;100.00;101315.13;5133291;27;20032;-86
2022/11/14 01:18:36;;;;;;;13.73;8.67;;;;;;;3.90;100.00;101306.41;5117773;28;20067;-87
2022/11/14 01:21:10;;;;;;;14.57;8.95;;;;;;;3.85;100.00;101306.00;5117182;28;20460;-86
2022/11/14 01:23:38;;;;;;;12.10;8.18;;;;;;;3.81;100.00;101304.66;5117290;28;20035;-86
2022/11/14 01:26:07;;;;;;;14.68;8.68;;;;;;;3.75;100.00;101303.47;5117374;28;20101;-86
2022/11/14 01:28:33;;;;;;;14.82;8.43;;;;;;;3.74;100.00;101301.78;5133503;27;20035;-86
2022/11/14 01:31:20;;;;;;;14.00;8.30;;;;;;;3.71;100.00;101293.22;5116229;28;20039;-86
2022/11/14 01:33:48;;;;;;;12.38;8.18;;;;;;;3.68;100.00;101297.88;5117282;28;20032;-86
2022/11/14 01:36:16;;;;;;;14.05;7.75;;;;;;;3.64;100.00;101296.50;5116176;28;20047;-87
2022/11/14 01:38:42;;;;;;;16.92;8.13;;;;;;;3.63;100.00;101292.16;5116197;28;20062;-86
2022/11/14 01:41:11;;;;;;;13.95;8.30;;;;;;;3.57;100.00;101287.41;5133379;27;20467;-86
2022/11/14 01:43:39;;;;;;;11.50;7.68;;;;;;;3.54;100.00;101286.91;5133430;27;20047;-86
2022/11/14 01:46:11;;;;;;;13.43;7.60;;;;;;;3.48;100.00;101286.53;5132659;27;20059;-86
2022/11/14 01:49:12;;;;;;;12.95;8.35;;;;;;;3.47;100.00;101292.91;5116315;28;20094;-87
2022/11/14 01:51:50;;;;;;;11.02;8.13;;;;;;;3.46;100.00;101280.47;5096229;28;20047;-87
2022/11/14 01:54:25;;;;;;;13.65;7.40;;;;;;;3.42;100.00;101287.16;5116928;28;20031;-86
2022/11/14 01:56:59;;;;;;;11.32;7.88;;;;;;;3.38;100.00;101283.13;5132872;27;20088;-87
2022/11/14 01:59:29;;;;;;;12.20;7.47;;;;;;;3.33;100.00;101278.19;5115969;28;20063;-86
2022/11/14 02:01:59;;;;;;;13.32;7.88;;;;;;;3.33;100.00;101282.72;5115726;28;20046;-86
2022/11/14 02:04:28;;;;;;;13.70;8.07;;;;;;;3.32;100.00;101283.72;5132725;27;20039;-87
2022/11/14 02:06:58;;;;;;;14.00;7.85;;;;;;;3.28;100.00;101275.16;5116851;28;20031;-87
2022/11/14 02:09:27;;;;;;;12.55;7.93;;;;;;;3.28;100.00;101269.81;5115574;28;20060;-87
2022/11/14 02:11:55;;;;;;;13.07;8.07;;;;;;;3.27;100.00;101270.78;5115410;28;20081;-86
2022/11/14 02:14:21;;;;;;;12.90;7.80;;;;;;;3.25;100.00;101267.44;5115365;28;20067;-86
2022/11/14 02:16:47;;;;;;;12.05;7.63;;;;;;;3.21;100.00;101263.38;5114972;28;20043;-87
2022/11/14 02:19:14;;;;;;;14.32;7.50;;;;;;;3.19;100.00;101262.69;5132693;27;20043;-86
2022/11/14 02:21:39;;;;;;;12.60;7.45;;;;;;;3.19;100.00;101267.19;5116952;28;20089;-87
2022/11/14 02:24:12;;;;;;;14.47;7.83;;;;;;;3.20;100.00;101260.84;5116786;28;20375;-86
2022/11/14 02:26:40;;;;;;;15.02;8.00;;;;;;;3.16;100.00;101255.81;5132776;27;20777;-87
2022/11/14 02:29:07;;;;;;;12.70;7.80;;;;;;;3.18;100.00;101247.59;5132223;27;20040;-87
2022/11/14 02:31:33;;;;;;;12.88;7.80;;;;;;;3.18;100.00;101255.66;5133299;27;20487;-87
2022/11/14 02:33:58;;;;;;;12.90;7.70;;;;;;;3.15;100.00;101250.59;5131917;27;20048;-86
2022/11/14 02:36:24;;;;;;;14.27;8.13;;;;;;;3.14;100.00;101254.28;5115321;28;20054;-86
2022/11/14 02:38:53;;;;;;;12.65;8.15;;;;;;;3.10;100.00;101242.16;5132315;27;20039;-87
2022/11/14 02:41:18;;;;;;;11.43;7.63;;;;;;;3.08;100.00;101253.06;5115060;28;20407;-86
2022/11/14 02:43:44;;;;;;;13.47;7.00;;;;;;;3.04;100.00;101250.84;5097814;28;20044;-86
2022/11/14 02:46:10;;;;;;;11.47;7.53;;;;;;;3.02;100.00;101258.22;5097574;28;20047;-86
2022/11/14 02:48:35;;;;;;;10.40;7.00;;;;;;;2.94;100.00;101248.28;5114761;28;20059;-86
2022/11/14 02:51:00;;;;;;;13.43;7.00;;;;;;;2.89;100.00;101250.56;5097680;28;20510;-86
2022/11/14 02:53:26;;;;;;;13.33;7.23;;;;;;;2.87;100.00;101236.50;5114649;28;20067;-86
2022/11/14 02:55:51;;;;;;;13.10;7.63;;;;;;;2.83;100.00;101235.94;5097548;28;20097;-86
2022/11/14 02:58:16;;;;;;;12.05;7.00;;;;;;;2.80;100.00;101233.56;5097395;28;20036;-86
2022/11/14 03:00:42;;;;;;;13.02;6.78;;;;;;;2.77;100.00;101232.03;5131713;27;20039;-86
2022/11/14 03:03:07;;;;;;;13.00;7.10;;;;;;;2.77;100.00;101232.03;5097697;28;20048;-86
2022/11/14 03:05:33;;;;;;;11.83;7.03;;;;;;;2.72;100.00;101226.31;5114440;28;20585;-86
2022/11/14 03:07:58;;;;;;;17.50;8.10;;;;;;;2.71;100.00;101226.47;5114374;28;20036;-86
2022/11/14 03:10:24;;;;;;;11.70;7.30;;;;;;;2.70;100.00;101232.81;5131588;27;20617;-86
2022/11/14 03:12:59;;;;;;;10.57;6.60;;;;;;;2.68;100.00;101226.78;5114092;28;20074;-86
2022/11/14 03:15:24;;;;;;;12.35;6.97;;;;;;;2.63;100.00;101221.88;5114901;28;20036;-86
2022/11/14 03:17:50;;;;;;;12.10;7.00;;;;;;;2.58;100.00;101217.00;5113877;28;20384;-86
2022/11/14 03:20:16;;;;;;;12.73;7.50;;;;;;;2.55;100.00;101211.91;5114144;28;20459;-87
2022/11/14 03:22:41;;;;;;;13.25;7.63;;;;;;;2.50;100.00;101216.91;5113576;28;20346;-87
2022/11/14 03:25:07;;;;;;;12.43;7.27;;;;;;;2.46;100.00;101218.19;5097002;28;20395;-87
2022/11/14 03:27:32;;;;;;;13.38;7.15;;;;;;;2.44;100.00;101223.72;5114781;28;20071;-87
2022/11/14 03:29:58;;;;;;;12.07;7.40;;;;;;;2.42;100.00;101212.31;5097462;28;20130;-86
2022/11/14 03:32:23;;;;;;;14.23;7.80;;;;;;;2.41;100.00;101221.34;5113949;28;20040;-86
2022/11/14 03:34:49;;;;;;;12.98;7.85;;;;;;;2.40;100.00;101218.81;5096445;28;20421;-87
2022/11/14 03:37:14;;;;;;;15.80;8.00;;;;;;;2.36;100.00;101212.94;5114666;28;20044;-86
2022/11/14 03:39:39;;;;;;;15.47;7.23;;;;;;;2.37;100.00;101203.88;5113393;28;20380;-86
2022/11/14 03:42:05;;;;;;;13.30;7.20;;;;;;;2.36;100.00;101201.38;5097158;28;20139;-87
2022/11/14 03:44:30;;;;;;;17.83;7.43;;;;;;;2.38;100.00;101200.22;5113996;28;20479;-88
2022/11/14 03:46:58;;;;;;;13.30;7.35;;;;;;;2.36;100.00;101199.56;5113059;28;20398;-86
2022/11/14 03:49:24;;;;;;;13.00;7.70;;;;;;;2.36;100.00;101212.94;5113583;28;20134;-86
2022/11/14 03:51:49;;;;;;;11.37;7.00;;;;;;;2.37;100.00;101205.75;5115116;28;20074;-87
2022/11/14 03:54:15;;;;;;;15.23;8.00;;;;;;;2.35;100.00;101199.69;5114343;28;20028;-86
2022/11/14 03:56:40;;;;;;;13.20;7.63;;;;;;;2.33;100.00;101196.31;5130308;27;20044;-87
2022/11/14 03:59:05;;;;;;;12.05;6.88;;;;;;;2.30;100.00;101201.97;5113392;28;20769;-86
2022/11/14 04:01:31;;;;;;;14.60;7.70;;;;;;;2.25;100.00;101203.28;5096277;28;20096;-87
2022/11/14 04:03:56;;;;;;;10.30;7.40;;;;;;;2.25;100.00;101189.88;5113611;28;20123;-87
2022/11/14 04:06:22;;;;;;;15.93;7.50;;;;;;;2.24;100.00;101193.56;5096001;28;20040;-86
2022/11/14 04:08:48;;;;;;;13.55;6.95;;;;;;;2.23;100.00;101189.22;5096401;28;20054;-86
2022/11/14 04:11:13;;;;;;;13.73;7.70;;;;;;;2.20;100.00;101180.63;5130102;27;20039;-87
2022/11/14 04:13:38;;;;;;;10.10;6.73;;;;;;;2.17;100.00;101184.47;5113102;28;20028;-87
2022/11/14 04:16:04;;;;;;;11.52;7.30;;;;;;;2.14;100.00;101182.09;5096265;28;20043;-87
2022/11/14 04:18:30;;;;;;;10.83;7.00;;;;;;;2.11;100.00;101182.38;5113030;28;20036;-87
2022/11/14 04:20:55;;;;;;;13.23;7.27;;;;;;;2.05;100.00;101188.34;5113004;28;20050;-87
2022/11/14 04:23:21;;;;;;;14.15;7.03;;;;;;;2.01;100.00;101179.78;5112738;28;20127;-87
2022/11/14 04:25:47;;;;;;;12.63;6.63;;;;;;;2.00;100.00;101172.75;5114564;28;20040;-86
2022/11/14 04:28:13;;;;;;;14.73;7.03;;;;;;;1.97;100.00;101170.38;5113097;28;20040;-87
2022/11/14 04:30:38;;;;;;;11.73;7.03;;;;;;;1.92;100.00;101173.50;5130064;27;20138;-86
2022/11/14 04:33:04;;;;;;;12.65;6.47;;;;;;;1.91;100.00;101173.66;5113220;28;20039;-87
2022/11/14 04:35:29;;;;;;;13.17;6.80;;;;;;;1.87;100.00;101164.22;5113934;28;20034;-86
2022/11/14 04:37:55;;;;;;;11.15;6.53;;;;;;;1.84;100.00;101164.53;5114692;28;20121;-87
2022/11/14 04:40:20;;;;;;;12.30;7.23;;;;;;;1.79;100.00;101167.66;5130058;28;20059;-87
2022/11/14 04:42:49;;;;;;;13.57;7.13;;;;;;;1.75;100.00;101161.75;5095821;28;20039;-87
2022/11/14 04:45:15;;;;;;;12.02;6.88;;;;;;;1.73;100.00;101163.75;5129442;27;20031;-87
2022/11/14 04:47:41;;;;;;;12.60;6.90;;;;;;;1.70;100.00;101156.03;5082688;28;20051;-87
2022/11/14 04:50:08;;;;;;;11.57;6.93;;;;;;;1.69;100.00;101162.38;5118056;28;20130;-87
2022/11/14 04:52:33;;;;;;;12.38;6.97;;;;;;;1.66;100.00;101161.84;5134075;27;20031;-86
2022/11/14 04:54:59;;;;;;;14.07;7.80;;;;;;;1.63;100.00;101157.63;5134991;27;20479;-86
2022/11/14 04:57:24;;;;;;;15.95;7.70;;;;;;;1.64;100.00;101161.13;5133786;27;20504;-86
2022/11/14 04:59:50;;;;;;;15.73;7.70;;;;;;;1.63;100.00;101157.63;5117070;28;20395;-86
2022/11/14 05:02:16;;;;;;;15.00;7.60;;;;;;;1.62;100.00;101152.41;5116744;28;20035;-86
2022/11/14 05:04:43;;;;;;;11.70;6.95;;;;;;;1.60;100.00;101152.56;5117745;28;20039;-87
2022/11/14 05:07:09;;;;;;;11.80;7.38;;;;;;;1.67;100.00;101159.00;5116703;28;20046;-87
2022/11/14 05:09:35;;;;;;;14.27;7.80;;;;;;;1.71;100.00;101163.06;5133874;27;20040;-86
2022/11/14 05:12:04;;;;;;;16.23;7.70;;;;;;;1.75;100.00;101159.09;5116720;28;20116;-86
2022/11/14 05:14:30;;;;;;;14.82;7.70;;;;;;;1.77;100.00;101153.56;5134004;27;20471;-86
2022/11/14 05:16:56;;;;;;;14.63;7.57;;;;;;;1.78;100.00;101151.78;5117822;27;20040;-87
2022/11/14 05:19:21;;;;;;;13.73;7.30;;;;;;;1.77;100.00;101140.19;5133358;27;20039;-86
2022/11/14 05:21:47;;;;;;;15.10;7.20;;;;;;;1.74;100.00;101144.03;5099809;28;20036;-87
2022/11/14 05:24:12;;;;;;;12.25;7.28;;;;;;;1.74;100.00;101133.34;5133151;27;20286;-87
2022/11/14 05:26:38;;;;;;;13.27;7.80;;;;;;;1.75;100.00;101135.00;5116002;28;20103;-87
2022/11/14 05:29:04;;;;;;;14.00;7.80;;;;;;;1.75;100.00;101134.19;5116288;28;20063;-86
2022/11/14 05:31:30;;;;;;;16.05;7.43;;;;;;;1.75;100.00;101134.19;5133404;27;20479;-86
2022/11/14 05:33:55;;;;;;;14.95;7.40;;;;;;;1.73;100.00;101125.47;5116116;28;20084;-86
2022/11/14 05:36:21;;;;;;;14.57;7.57;;;;;;;1.71;100.00;101122.94;5115563;28;20043;-86
2022/11/14 05:38:46;;;;;;;13.93;7.50;;;;;;;1.72;100.00;101121.94;5099004;28;20136;-86
2022/11/14 05:41:14;;;;;;;11.57;7.63;;;;;;;1.71;100.00;101130.09;5115911;28;20027;-87
2022/11/14 05:43:40;;;;;;;13.50;7.90;;;;;;;1.70;100.00;101117.75;5133123;27;20039;-87
2022/11/14 05:46:08;;;;;;;13.27;7.65;;;;;;;1.73;100.00;101120.94;5132372;27;20048;-87
2022/11/14 05:48:37;;;;;;;13.57;7.63;;;;;;;1.77;100.00;101118.81;5116676;28;20387;-86
2022/11/14 05:51:05;;;;;;;15.63;8.35;;;;;;;1.80;100.00;101131.03;5116929;27;20119;-86
2022/11/14 05:53:32;;;;;;;15.18;8.05;;;;;;;1.78;100.00;101127.69;5132928;27;20053;-86
2022/11/14 05:56:08;;;;;;;16.42;7.65;;;;;;;1.77;100.00;101131.34;5116173;28;20124;-87
2022/11/14 05:58:34;;;;;;;13.65;7.72;;;;;;;1.78;100.00;101128.53;5115379;28;20039;-86
2022/11/14 06:01:07;;;;;;;15.00;7.68;;;;;;;1.80;100.00;101126.56;5114706;28;20063;-87
2022/11/14 06:03:38;;;;;;;12.98;7.38;;;;;;;1.74;100.00;101125.31;5115542;28;20043;-87
2022/11/14 06:06:05;;;;;;;18.10;8.10;;;;;;;1.71;100.00;101122.94;5116492;28;20058;-87
2022/11/14 06:08:31;;;;;;;11.38;7.35;;;;;;;1.69;100.00;101122.22;5116363;27;20039;-86
2022/11/14 06:11:05;;;;;;;12.60;7.43;;;;;;;1.67;100.00;101121.56;5132520;27;20134;-87
2022/11/14 06:13:32;;;;;;;17.33;7.88;;;;;;;1.67;100.00;101118.88;5115735;28;20360;-86
2022/11/14 06:15:59;;;;;;;14.20;8.02;;;;;;;1.66;100.00;101121.72;5116620;28;20035;-87
2022/11/14 06:18:25;;;;;;;13.80;7.68;;;;;;;1.65;100.00;101123.53;5116877;28;20036;-87
2022/11/14 06:20:57;;;;;;;19.88;8.18;;;;;;;1.66;100.00;101127.06;5115469;28;20067;-87
2022/11/14 06:23:22;;;;;;;13.48;7.85;;;;;;;1.63;100.00;101128.19;5115428;28;20046;-87
2022/11/14 06:25:48;;;;;;;14.63;7.87;;;;;;;1.62;100.00;101126.50;5132269;27;20039;-87
2022/11/14 06:28:13;;;;;;;14.20;7.32;;;;;;;1.62;100.00;101128.34;5114667;28;20031;-87
2022/11/14 06:30:41;;;;;;;13.03;7.90;;;;;;;1.59;100.00;101118.78;5115235;28;20073;-87
2022/11/14 06:33:06;;;;;;;16.75;8.45;;;;;;;1.54;100.00;101119.22;5114902;28;20044;-87
2022/11/14 06:35:32;;;;;;;12.93;7.60;;;;;;;1.51;100.00;101122.22;5115734;28;20040;-85
2022/11/14 06:37:59;;;;;;;13.47;7.50;;;;;;;1.44;100.00;101113.09;5132130;27;20043;-86
2022/11/14 06:40:24;;;;;;;15.13;7.90;;;;;;;1.43;100.00;101119.41;5131890;27;20043;-87
2022/11/14 06:42:58;;;;;;;14.63;7.90;;;;;;;1.38;100.00;101116.38;5097621;28;20093;-88
2022/11/14 06:45:24;;;;;;;16.50;7.82;;;;;;;1.34;100.00;101129.16;5113998;28;20024;-89
2022/11/14 06:47:50;;;;;;;14.00;7.40;;;;;;;1.31;100.00;101123.28;5112358;28;20429;-89
2022/11/14 06:50:15;;;;;;;16.98;7.97;;;;;;;1.28;100.00;101128.94;5114721;28;20321;-89
2022/11/14 06:52:50;;;;;;;14.80;7.93;;;;;;;1.29;100.00;101138.66;5115527;28;20124;-89
2022/11/14 06:55:17;;;;;;;15.05;7.80;;;;;;;1.32;100.00;101136.50;5115004;28;20038;-87
2022/11/14 06:57:43;;;;;;;13.52;7.95;;;;;;;1.35;100.00;101138.06;5096972;28;20043;-87
2022/11/14 07:00:09;;;;;;;16.03;8.30;;;;;;;1.37;100.00;101141.41;5114859;28;20054;-87
2022/11/14 07:02:34;;;;;;;15.98;8.18;;;;;;;1.38;100.00;101140.44;5114359;28;20035;-88
2022/11/14 07:05:07;;;;;;;12.80;7.97;;;;;;;1.39;100.00;101137.59;5115201;28;20074;-88
2022/11/14 07:07:32;;;;;;;19.05;7.93;;;;;;;1.42;100.00;101143.63;5096655;28;20039;-87
2022/11/14 07:10:00;;;;;;;13.97;7.53;;;;;;;1.41;100.00;101150.81;5113686;28;20426;-87
2022/11/14 07:12:28;;;;;;;13.93;8.50;;;;;;;1.42;100.00;101139.16;5131337;27;20067;-87
2022/11/14 07:14:56;;;;;;;14.02;7.82;;;;;;;1.48;100.00;101145.75;5114335;28;20372;-89
2022/11/14 07:17:25;;;;;;;13.50;8.03;;;;;;;1.53;100.00;101140.78;5131776;27;20036;-88
2022/11/14 07:20:02;;;;;;;16.27;8.38;;;;;;;1.55;100.00;101145.00;5113960;28;20034;-88
2022/11/14 07:22:30;;;;;;;20.15;8.48;;;;;;;1.55;100.00;101147.66;5114246;28;20035;-87
2022/11/14 07:24:56;;;;;;;14.90;8.60;;;;;;;1.55;100.00;101147.66;5113871;28;20039;-88
2022/11/14 07:27:21;;;;;;;13.90;8.60;;;;;;;1.56;100.00;101149.31;5130341;27;20447;-88
2022/11/14 07:29:50;;;;;;;14.97;8.10;;;;;;;1.63;100.00;101138.06;5130707;27;20522;-87
2022/11/14 07:32:15;;;;;;;14.25;8.07;;;;;;;1.67;100.00;101134.94;5113363;28;20391;-87
2022/11/14 07:34:43;;;;;;;15.73;8.20;;;;;;;1.73;100.00;101131.66;5097011;28;20068;-87
2022/11/14 07:37:08;;;;;;;16.35;8.48;;;;;;;1.79;100.00;101126.66;5114177;28;20067;-89
2022/11/14 07:39:34;;;;;;;18.50;8.65;;;;;;;1.84;100.00;101127.91;5113134;28;20123;-88
2022/11/14 07:42:03;;;;;;;21.47;8.27;;;;;;;1.90;100.00;101126.47;5113413;28;20032;-88
2022/11/14 07:44:28;;;;;;;18.33;8.75;;;;;;;1.93;100.00;101118.13;5130772;27;20070;-88
2022/11/14 07:46:53;;;;;;;18.03;8.53;;;;;;;1.99;100.00;101119.38;5130214;27;20071;-88
2022/11/14 07:49:19;;;;;;;16.70;8.10;;;;;;;2.05;100.00;101119.59;5113140;28;20044;-87
2022/11/14 07:51:44;;;;;;;17.33;9.23;;;;;;;2.12;100.00;101121.66;5130204;27;20042;-88
2022/11/14 07:54:10;;;;;;;17.75;9.40;;;;;;;2.17;100.00;101112.19;5113244;28;20134;-87
2022/11/14 07:56:42;;;;;;;18.75;8.73;;;;;;;2.25;100.00;101112.25;5130443;27;20070;-87
2022/11/14 07:59:07;;;;;;;14.45;8.32;;;;;;;2.33;100.00;101122.16;5114553;28;20062;-87
2022/11/14 08:01:32;;;;;;;18.07;8.90;;;;;;;2.39;100.00;101110.88;5113497;28;20027;-87
2022/11/14 08:03:58;;;;;;;15.82;8.80;;;;;;;2.46;100.00;101114.56;5112910;28;20055;-87
2022/11/14 08:06:23;;;;;;;16.20;8.80;;;;;;;2.53;100.00;101106.78;5112829;28;20038;-87
2022/11/14 08:08:49;;;;;;;17.47;8.73;;;;;;;2.60;100.00;101104.31;5113144;28;20072;-87
2022/11/14 08:11:46;;;;;;;16.57;9.97;;;;;;;2.70;100.00;101106.88;5113101;28;20048;-87
2022/11/14 08:14:05;;;;;;;15.02;8.50;;;;;;;2.76;100.00;101093.72;5114057;28;20089;-87
2022/11/14 08:16:31;;;;;;;17.42;8.57;;;;;;;2.86;100.00;101096.25;5129715;27;20063;-87
2022/11/14 08:18:56;;;;;;;14.73;8.30;;;;;;;2.90;100.00;101091.44;5130756;27;20120;-87
2022/11/14 08:21:22;;;;;;;21.93;9.93;;;;;;;2.97;100.00;101087.13;5095555;28;20046;-87
2022/11/14 08:23:47;;;;;;;16.00;9.52;;;;;;;3.03;100.00;101082.94;5113231;28;20044;-87
2022/11/14 08:26:13;;;;;;;15.80;9.03;;;;;;;3.10;100.00;101084.84;5112914;28;20066;-87
2022/11/14 08:28:38;;;;;;;19.87;9.67;;;;;;;3.16;100.00;101081.50;5112794;28;20122;-87
2022/11/14 08:31:09;;;;;;;14.43;8.77;;;;;;;3.23;100.00;101087.06;5112789;28;20067;-87
2022/11/14 08:33:34;;;;;;;15.48;9.07;;;;;;;3.33;100.00;101081.56;5113043;28;20039;-87
2022/11/14 08:36:08;;;;;;;15.67;9.10;;;;;;;3.39;100.00;101080.91;5113337;28;20080;-87
2022/11/14 08:38:34;;;;;;;14.90;8.65;;;;;;;3.47;100.00;101072.91;5113130;28;20035;-87
2022/11/14 08:41:03;;;;;;;14.55;8.77;;;;;;;3.57;100.00;101072.75;5129943;28;20061;-87
2022/11/14 08:43:30;;;;;;;16.17;8.43;;;;;;;3.65;100.00;101070.09;5130210;28;20395;-87
2022/11/14 08:46:00;;;;;;;15.27;8.68;;;;;;;3.73;100.00;101063.91;5127106;28;20052;-87
2022/11/14 08:48:26;;;;;;;13.80;8.52;;;;;;;3.80;100.00;101064.91;5112548;28;20047;-87
2022/11/14 08:50:51;;;;;;;18.45;8.30;;;;;;;3.90;100.00;101064.78;5129353;28;20036;-87
2022/11/14 08:53:17;;;;;;;15.13;8.10;;;;;;;3.99;100.00;101071.81;5112585;28;20035;-87
2022/11/14 08:55:43;;;;;;;16.02;8.90;;;;;;;4.05;100.00;101075.69;5112748;28;20047;-87
2022/11/14 08:58:09;;;;;;;13.63;8.00;;;;;;;4.13;100.00;101067.63;5112943;28;20048;-87
2022/11/14 09:00:34;;;;;;;17.83;8.30;;;;;;;4.22;100.00;101068.47;5114049;28;20031;-87
2022/11/14 09:03:00;;;;;;;16.47;8.43;;;;;;;4.31;100.00;101069.31;5112753;28;20032;-88
2022/11/14 09:05:28;;;;;;;20.33;9.40;;;;;;;4.38;100.00;101070.31;5112393;28;20349;-87
2022/11/14 09:07:54;;;;;;;17.00;8.00;;;;;;;4.46;100.00;101067.63;5112290;28;20050;-88
2022/11/14 09:10:19;;;;;;;14.20;8.90;;;;;;;4.52;100.00;101072.31;5112556;28;20036;-87
2022/11/14 09:13:02;;;;;;;17.20;8.03;;;;;;;4.60;100.00;101068.78;5114278;28;20039;-87
2022/11/14 09:15:28;;;;;;;14.10;7.80;;;;;;;4.70;100.00;101061.34;5129741;28;20043;-87
2022/11/14 09:17:54;;;;;;;14.13;8.30;;;;;;;4.75;100.00;101050.09;5112547;28;20031;-87
2022/11/14 09:20:24;;;;;;;13.50;7.78;;;;;;;4.82;100.00;101045.69;5129220;28;20075;-87
2022/11/14 09:22:52;;;;;;;12.70;8.20;;;;;;;4.91;100.00;101050.03;5130078;28;20126;-87
2022/11/14 09:25:20;;;;;;;14.13;7.65;;;;;;;4.98;100.00;101047.50;5112376;28;20047;-87
2022/11/14 09:27:46;;;;;;;13.18;8.52;;;;;;;5.05;100.00;101031.53;5113726;28;20519;-88
2022/11/14 09:30:12;;;;;;;14.07;8.73;;;;;;;5.14;100.00;101035.84;5129351;28;20122;-88
2022/11/14 09:32:38;;;;;;;14.90;8.83;;;;;;;5.22;100.00;101037.66;5115282;28;20491;-87
2022/11/14 09:35:04;;;;;;;14.75;8.30;;;;;;;5.31;100.00;101038.44;5099419;28;20077;-87
2022/11/14 09:37:32;;;;;;;20.37;9.03;;;;;;;5.38;99.56;101040.25;5133118;27;20479;-87
2022/11/14 09:39:57;;;;;;;11.65;7.93;;;;;;;5.47;99.95;101030.28;5133244;27;20114;-87
2022/11/14 09:42:41;;;;;;;13.00;8.83;;;;;;;5.58;99.75;101034.41;5099245;28;20436;-88
2022/11/14 09:45:28;;;;;;;;;;;;;;;;;;;;;
2022/11/14 09:48:04;;;;;;;15.15;8.40;;;;;;;5.75;98.17;101019.84;5114817;28;20050;-87
2022/11/14 09:50:35;;;;;;;15.40;8.95;;;;;;;5.83;98.04;101023.50;5117067;28;20088;-87
2022/11/14 09:53:06;;;;;;;13.85;9.02;;;;;;;5.92;97.61;101033.16;5117527;28;20039;-88
2022/11/14 09:55:33;;;;;;;18.77;9.55;;;;;;;6.01;97.43;101034.84;5133338;27;20031;-87
2022/11/14 09:58:01;;;;;;;13.57;8.73;;;;;;;6.07;96.80;101028.72;5132728;27;20093;-88
2022/11/14 10:00:48;;;;;;;18.65;8.27;;;;;;;6.17;96.14;101030.31;5115536;28;20046;-87
2022/11/14 10:03:25;;;;;;;16.92;8.88;;;;;;;6.25;95.59;101032.94;5116578;28;20043;-86
2022/11/14 10:06:21;;;;;;;13.27;8.82;;;;;;;6.35;95.52;101035.38;5115272;28;20390;-87
2022/11/14 10:09:05;;;;;;;13.60;7.88;;;;;;;6.44;95.13;101029.72;5117338;28;20043;-87
2022/11/14 10:11:38;;;;;;;18.45;8.65;;;;;;;6.49;94.51;101031.88;5115287;28;20364;-87
2022/11/14 10:14:42;;;;;;;15.50;8.90;;;;;;;6.60;94.70;101027.88;5115775;28;20039;-87
2022/11/14 10:17:10;;;;;;;15.48;9.32;;;;;;;6.67;94.46;101037.75;5106889;28;20063;-87
2022/11/14 10:19:43;;;;;;;12.95;8.10;;;;;;;6.76;94.01;101032.25;5115439;28;20032;-88
2022/11/14 10:22:18;;;;;;;14.10;9.18;;;;;;;6.82;93.77;101020.72;5114841;28;20032;-88
2022/11/14 10:25:18;;;;;;;13.82;8.35;;;;;;;6.96;93.85;101021.75;5132872;27;20043;-88
2022/11/14 10:28:06;;;;;;;13.65;8.05;;;;;;;7.02;92.58;101015.59;5082125;28;20039;-88
2022/11/14 10:30:40;;;;;;;12.80;8.25;;;;;;;7.16;92.25;101020.16;5132402;27;20088;-88
2022/11/14 10:33:37;;;;;;;17.80;8.88;;;;;;;7.17;92.07;101008.31;5132829;27;20475;-88
2022/11/14 10:36:21;;;;;;;16.55;7.45;;;;;;;7.33;91.22;101006.44;5115496;28;20373;-88
2022/11/14 10:38:52;;;;;;;17.02;8.85;;;;;;;7.42;90.34;101015.25;5115168;28;20044;-88
2022/11/14 10:41:18;;;;;;;16.05;8.90;;;;;;;7.54;89.63;101011.00;5131694;27;20126;-88
2022/11/14 10:43:54;;;;;;;16.17;8.95;;;;;;;7.66;88.84;101005.94;5114829;28;20035;-88
2022/11/14 10:46:27;;;;;;;15.50;8.93;;;;;;;7.81;88.16;101008.59;5115506;28;20559;-88
2022/11/14 10:48:53;;;;;;;15.07;9.18;;;;;;;7.96;87.41;101005.81;5114956;28;20471;-88
2022/11/14 10:52:04;;;;;;;14.52;8.93;;;;;;;8.11;86.99;101009.28;5131858;27;20031;-88
2022/11/14 10:54:55;;;;;;;16.50;8.68;;;;;;;8.28;85.53;101001.69;5053042;28;20124;-88
2022/11/14 10:57:21;;;;;;;15.75;9.35;;;;;;;8.49;84.31;101008.97;5036934;28;20033;-88
2022/11/14 10:59:47;;;;;;;12.68;8.30;;;;;;;8.83;83.42;100990.22;5089838;28;20040;-87
2022/11/14 11:02:16;;;;;;;15.57;9.13;;;;;;;10.16;80.72;100989.72;5114318;28;20088;-86
2022/11/14 11:04:45;;;;;;;19.67;10.07;;;;;;;12.85;70.84;100981.72;5132265;27;20036;-87
2022/11/14 11:11:28;;;;;;;14.65;8.52;;;;;;;15.11;60.35;100978.34;5115819;28;20047;-87
2022/11/14 11:16:37;;;;;;;14.13;7.27;;;;;;;21.12;42.67;100956.66;5071117;28;20617;-87
2022/11/14 11:19:14;;;;;;;11.77;8.17;;;;;;;22.09;44.42;100944.13;5114597;28;20134;-86
2022/11/14 11:21:49;;;;;;;11.70;8.10;;;;;;;23.27;41.44;100937.22;5130440;27;20285;-86
2022/11/14 11:24:33;;;;;;;10.35;8.07;;;;;;;24.18;41.07;100932.44;5113920;28;20044;-86
2022/11/14 11:27:21;;;;;;;11.90;8.80;;;;;;;24.59;40.39;100926.16;5131275;27;20130;-86
2022/11/14 11:30:10;;;;;;;12.07;8.27;;;;;;;24.90;34.05;100933.03;5113599;28;20043;-86
2022/11/14 11:32:35;;;;;;;15.93;9.35;;;;;;;25.71;32.10;100927.53;5114455;28;20470;-87